• Join FlightAware (Why Join?)
  • Login
  • US Flag 
08:29PM EDT


 

Airport Tracker/Info


-or-


 

Live Flight TrackerFlight Track Log ✈ EJA618 ✈ 11-Nov-2013 ✈ KBTL - KESN

Flight Track Log - Related Links

Times and Time Zones

All times are in EST time to prevent confusion due to time zone crossing. See the EJA618 flight status page for this flight to view local times or setup timezone preferences in your user account.

Time Position Orientation Groundspeed Altitude Reporting Facility
EST Latitude Longitude Course Direction KTS MPH feet Rate Location/Type
10:59AM 42.2767 -85.2622 169° South 200 230 2,900  Level Cleveland Center
11:01AM 42.1947 -85.2400 169° South 244 281 7,100 3,300 Climbing Chicago Center
11:02AM 42.1611 -85.1156 110° East 327 376 10,100 2,580 Climbing Chicago Center
11:03AM 42.1528 -84.9864 95° East 342 394 12,400 2,280 Climbing Chicago Center
11:04AM 42.1444 -84.8467 95° East 365 420 14,900 2,280 Climbing Chicago Center
11:05AM 42.1350 -84.7031 95° East 380 437 17,100 1,920 Climbing Chicago Center
11:06AM 42.1253 -84.5528 95° East 397 457 18,900 1,980 Climbing Chicago Center
11:07AM 42.1136 -84.3625 95° East 422 486 21,300 2,040 Climbing Chicago Center
11:08AM 42.1033 -84.2167 95° East 443 510 23,000 1,860 Climbing Cleveland Center
11:09AM 42.0908 -84.0431 95° East 465 535 25,000 1,860 Climbing Cleveland Center
11:10AM 42.0444 -83.8800 111° Southeast 472 543 26,900 1,980 Climbing Cleveland Center
11:11AM 41.9731 -83.6964 118° Southeast 469 540 29,200 2,040 Climbing Cleveland Center
11:12AM 41.9119 -83.5392 118° Southeast 469 540 31,200 1,740 Climbing Cleveland Center
11:13AM 41.8533 -83.3906 118° Southeast 469 540 32,900 1,020 Climbing Cleveland Center
11:14AM 41.7900 -83.2311 118° Southeast 486 559 33,400 960 Climbing Cleveland Center
11:15AM 41.7261 -83.0692 118° Southeast 495 570 34,900 1,620 Climbing Cleveland Center
11:16AM 41.6497 -82.8786 118° Southeast 489 563 36,800 1,500 Climbing Cleveland Center
11:17AM 41.5931 -82.7378 118° Southeast 482 555 38,000 540 Climbing Cleveland Center
11:18AM 41.5283 -82.5767 118° Southeast 486 559 38,000  Level Cleveland Center
11:19AM 41.4525 -82.3925 119° Southeast 484 557 38,000 480 Level Cleveland Center
11:20AM 41.3739 -82.2550 127° Southeast 468 539 39,000 900 Climbing Cleveland Center
11:21AM 41.2836 -82.1306 134° Southeast 466 536 39,900 900 Climbing Cleveland Center
11:22AM 41.1939 -82.0100 135° Southeast 467 537 40,900 480 Climbing Cleveland Center
11:23AM 41.1019 -81.8831 134° Southeast 472 543 41,000  Climbing Cleveland Center
11:24AM 41.0119 -81.7619 135° Southeast 464 534 41,000  Level Cleveland Center
11:25AM 40.9242 -81.6433 134° Southeast 452 520 41,000  Level Cleveland Center
11:26AM 40.8217 -81.5039 134° Southeast 452 520 41,000  Level Cleveland Center
11:27AM 40.7514 -81.3578 122° Southeast 467 537 41,000  Level Cleveland Center
11:28AM 40.6831 -81.2089 121° Southeast 471 542 41,000  Level Cleveland Center
11:29AM 40.6133 -81.0603 122° Southeast 473 544 41,000  Level Cleveland Center
11:30AM 40.5450 -80.9161 122° Southeast 474 545 41,000  Level Cleveland Center
11:31AM 40.4764 -80.7706 122° Southeast 472 543 41,000  Level Cleveland Center
11:32AM 40.4081 -80.6258 122° Southeast 471 542 41,000  Level Cleveland Center
11:33AM 40.3253 -80.4528 122° Southeast 471 542 41,000  Level Cleveland Center
11:34AM 40.2575 -80.3103 122° Southeast 472 543 41,000 -360 Level Cleveland Center
11:35AM 40.1881 -80.1694 123° Southeast 472 543 40,300 -1,020 Descending Cleveland Center
11:36AM 40.1175 -80.0250 123° Southeast 478 550 39,000 -1,260 Descending Cleveland Center
11:38AM 40.0467 -79.8794 122° Southeast 479 551 37,700 -1,740 Descending Cleveland Center
11:39AM 39.9631 -79.7100 123° Southeast 467 537 35,500 -2,280 Descending Cleveland Center
11:40AM 39.8944 -79.5692 122° Southeast 463 533 33,100 -2,340 Descending Cleveland Center
11:41AM 39.8247 -79.4300 123° Southeast 460 529 30,700 -2,400 Descending Cleveland Center
11:42AM 39.7567 -79.2914 123° Southeast 457 526 28,300 -2,400 Descending Cleveland Center
11:43AM 39.6861 -79.1494 123° Southeast 467 537 25,800 -2,100 Descending Cleveland Center
11:44AM 39.6272 -78.9972 117° Southeast 477 549 24,000 -1,200 Descending Cleveland Center
11:45AM 39.5878 -78.8172 106° East 466 536 23,400 -1,320 Descending Cleveland Center
11:46AM 39.5550 -78.6522 104° East 470 541 21,400 -2,040 Descending Cleveland Center
11:47AM 39.5211 -78.4914 105° East 465 535 19,300 -1,980 Descending Cleveland Center
11:48AM 39.4914 -78.3447 105° East 426 490 17,400 -1,860 Descending Cleveland Center
11:49AM 39.4603 -78.1997 105° East 419 482 15,600 -1,200 Descending Cleveland Center
11:50AM 39.4294 -78.0569 106° East 413 475 15,000 -840 Descending Cleveland Center
11:51AM 39.3944 -77.8892 105° East 406 467 14,000 -1,080 Descending Cleveland Center
11:52AM 39.3800 -77.7481 97° East 400 460 12,900 -540 Descending Cleveland Center
11:53AM 39.3717 -77.6083 94° East 391 450 12,900  Level Cleveland Center
11:54AM 39.3631 -77.4686 95° East 389 448 12,900  Level Cleveland Center
11:55AM 39.3531 -77.3281 95° East 391 450 13,000  Climbing Washington Center
11:56AM 39.3467 -77.1911 93° East 386 444 13,000  Level Washington Center
11:57AM 39.3361 -77.0514 96° East 386 444 13,000 -480 Level Washington Center
11:58AM 39.2833 -76.9167 117° Southeast 369 425 12,000 -960 Descending Potomac TRACON
11:59AM 39.2333 -76.8000 119° Southeast 375 432 11,000 -540 Descending Potomac TRACON
12:00PM 39.1833 -76.7000 123° Southeast 330 380 11,000  Level Potomac TRACON
12:01PM 39.1167 -76.5833 126° Southeast 353 406 11,000 -720 Level Potomac TRACON
12:02PM 39.0500 -76.4833 131° Southeast 317 365 9,600 -1,800 Descending Potomac TRACON
12:03PM 39.0000 -76.4000 128° Southeast 294 338 7,500 -2,340 Descending Potomac TRACON
12:04PM 38.9500 -76.3167 128° Southeast 279 321 5,200 -2,040 Descending Potomac TRACON
12:05PM 38.9000 -76.2667 142° Southeast 261 300 3,500 -1,560 Descending Potomac TRACON
12:06PM 38.8333 -76.2167 150° Southeast 234 269 2,100 -780 Descending Potomac TRACON
12:07PM 38.8000 -76.1833 142° Southeast 204 235 2,000 -420 Descending Potomac TRACON
12:08PM 38.7667 -76.1333 131° Southeast 183 211 1,400 -660 Descending Potomac TRACON
12:09PM 38.7833 -76.0833 67° East 151 174 800 -300 Descending Potomac TRACON
12:10PM 38.7833 -76.0667 90° East 147 169 800  Level Potomac TRACON